createdAt,value
2023-06-15T00:00:10.473Z,13.45
2023-06-15T00:02:44.144Z,13.50
2023-06-15T00:05:15.064Z,13.45
2023-06-15T00:07:46.889Z,13.48
2023-06-15T00:10:19.133Z,13.48
2023-06-15T00:12:50.084Z,13.47
2023-06-15T00:15:20.592Z,13.44
2023-06-15T00:17:51.990Z,13.45
2023-06-15T00:20:23.805Z,13.40
2023-06-15T00:22:54.169Z,13.40
2023-06-15T00:25:24.428Z,13.44
2023-06-15T00:27:56.032Z,13.45
2023-06-15T00:30:26.082Z,13.47
2023-06-15T00:32:56.658Z,13.45
2023-06-15T00:35:27.879Z,13.45
2023-06-15T00:37:59.179Z,13.44
2023-06-15T00:40:29.335Z,13.41
2023-06-15T00:42:59.262Z,13.37
2023-06-15T00:45:31.451Z,13.38
2023-06-15T00:48:02.993Z,13.37
2023-06-15T00:50:34.179Z,13.34
2023-06-15T00:53:05.810Z,13.35
2023-06-15T00:55:39.092Z,13.34
2023-06-15T00:58:10.139Z,13.30
2023-06-15T01:00:41.552Z,13.31
2023-06-15T01:03:14.790Z,13.30
2023-06-15T01:05:46.943Z,13.27
2023-06-15T01:08:18.584Z,13.31
2023-06-15T01:10:49.945Z,13.27
2023-06-15T01:13:23.503Z,13.25
2023-06-15T01:16:00.009Z,13.30
2023-06-15T01:18:32.065Z,13.32
2023-06-15T01:21:05.615Z,13.30
2023-06-15T01:23:35.991Z,13.34
2023-06-15T01:26:12.122Z,13.37
2023-06-15T01:28:48.376Z,13.45
2023-06-15T01:31:20.504Z,13.42
2023-06-15T01:33:54.212Z,13.34
2023-06-15T01:36:25.384Z,13.35
2023-06-15T01:38:59.333Z,13.37
2023-06-15T01:41:30.264Z,13.38
2023-06-15T01:44:05.499Z,13.41
2023-06-15T01:46:37.647Z,13.42
2023-06-15T01:49:08.659Z,13.45
2023-06-15T01:51:39.724Z,13.45
2023-06-15T01:54:12.057Z,13.42
2023-06-15T01:56:43.669Z,13.42
2023-06-15T01:59:14.265Z,13.44
2023-06-15T02:01:44.149Z,13.50
2023-06-15T02:04:14.509Z,13.52
2023-06-15T02:06:44.437Z,13.54
2023-06-15T02:09:15.779Z,13.51
2023-06-15T02:11:48.189Z,13.50
2023-06-15T02:14:20.372Z,13.52
2023-06-15T02:16:51.924Z,13.50
2023-06-15T02:19:24.646Z,13.45
2023-06-15T02:21:55.249Z,13.44
2023-06-15T02:24:25.496Z,13.41
2023-06-15T02:26:56.246Z,13.44
2023-06-15T02:29:28.151Z,13.48
2023-06-15T02:31:59.854Z,13.52
2023-06-15T02:34:30.812Z,13.48
2023-06-15T02:37:01.200Z,13.48
2023-06-15T02:39:33.394Z,13.42
2023-06-15T02:42:04.370Z,13.47
2023-06-15T02:44:34.929Z,13.48
2023-06-15T02:47:06.331Z,13.47
2023-06-15T02:49:37.379Z,13.48
2023-06-15T02:52:08.261Z,13.45
2023-06-15T02:54:40.136Z,13.40
2023-06-15T02:57:11.177Z,13.48
2023-06-15T02:59:56.678Z,13.44
2023-06-15T03:02:28.482Z,13.45
2023-06-15T03:05:01.241Z,13.51
2023-06-15T03:07:43.878Z,13.50
2023-06-15T03:10:33.480Z,13.50
2023-06-15T03:13:04.109Z,13.57
2023-06-15T03:15:34.427Z,13.59
2023-06-15T03:18:06.237Z,13.59
2023-06-15T03:20:40.120Z,13.58
2023-06-15T03:23:12.451Z,13.57
2023-06-15T03:25:43.117Z,13.62
2023-06-15T03:28:14.004Z,13.61
2023-06-15T03:30:49.185Z,13.63
2023-06-15T03:33:23.300Z,13.68
2023-06-15T03:35:56.453Z,13.65
2023-06-15T03:38:26.737Z,13.65
2023-06-15T03:40:59.510Z,13.73
2023-06-15T03:43:30.818Z,13.72
2023-06-15T03:46:00.997Z,13.65
2023-06-15T03:48:30.835Z,13.68
2023-06-15T03:51:02.784Z,13.66
2023-06-15T03:53:34.163Z,13.66
2023-06-15T03:56:04.641Z,13.66
2023-06-15T03:58:35.365Z,13.69
2023-06-15T04:01:07.312Z,13.69
2023-06-15T04:03:38.389Z,13.69
2023-06-15T04:06:10.555Z,13.66
2023-06-15T04:08:41.962Z,13.65
2023-06-15T04:11:12.243Z,13.63
2023-06-15T04:13:43.237Z,13.65
2023-06-15T04:16:15.182Z,13.61
2023-06-15T04:18:47.178Z,13.61
2023-06-15T04:21:19.038Z,13.57
2023-06-15T04:23:50.287Z,13.55
2023-06-15T04:26:23.167Z,13.54
2023-06-15T04:28:55.022Z,13.57
2023-06-15T04:31:27.074Z,13.55
2023-06-15T04:34:01.399Z,13.58
2023-06-15T04:36:33.566Z,13.63
2023-06-15T04:39:06.452Z,13.65
2023-06-15T04:41:37.750Z,13.72
2023-06-15T04:44:09.764Z,13.78
2023-06-15T04:46:42.367Z,13.80
2023-06-15T04:49:14.433Z,13.80
2023-06-15T04:51:46.621Z,13.82
2023-06-15T04:54:17.621Z,13.85
2023-06-15T04:56:49.144Z,13.87
2023-06-15T04:59:20.756Z,13.98
2023-06-15T05:01:51.320Z,13.99
2023-06-15T05:04:36.173Z,14.03
2023-06-15T05:07:07.586Z,14.03
2023-06-15T05:09:44.473Z,14.08
2023-06-15T05:12:19.155Z,14.09
2023-06-15T05:14:50.061Z,14.12
2023-06-15T05:17:22.806Z,14.14
2023-06-15T05:19:54.371Z,14.13
2023-06-15T05:22:25.402Z,14.17
2023-06-15T05:24:55.164Z,14.19
2023-06-15T05:27:25.929Z,14.20
2023-06-15T05:29:58.219Z,14.16
2023-06-15T05:32:28.410Z,14.17
2023-06-15T05:34:58.254Z,14.14
2023-06-15T05:37:29.362Z,14.14
2023-06-15T05:40:00.906Z,14.12
2023-06-15T05:42:32.814Z,14.17
2023-06-15T05:45:03.353Z,14.14
2023-06-15T05:47:37.799Z,14.14
2023-06-15T05:50:09.312Z,14.17
2023-06-15T05:52:39.764Z,14.16
2023-06-15T05:55:09.937Z,14.16
2023-06-15T05:57:40.150Z,14.21
2023-06-15T06:00:11.464Z,14.19
2023-06-15T06:02:46.342Z,14.20
2023-06-15T06:05:32.648Z,14.20
2023-06-15T06:08:03.701Z,14.24
2023-06-15T06:10:34.131Z,14.27
2023-06-15T06:13:22.831Z,14.24
2023-06-15T06:15:54.028Z,14.27
2023-06-15T06:18:24.252Z,14.30
2023-06-15T06:20:54.059Z,14.33
2023-06-15T06:23:24.777Z,14.38
2023-06-15T06:25:55.205Z,14.41
2023-06-15T06:28:26.651Z,14.37
2023-06-15T06:30:56.974Z,14.40
2023-06-15T06:33:27.178Z,14.38
2023-06-15T06:35:57.360Z,14.41
2023-06-15T06:38:29.527Z,14.41
2023-06-15T06:41:00.458Z,14.42
2023-06-15T06:43:30.849Z,14.41
2023-06-15T06:46:00.811Z,14.40
2023-06-15T06:48:30.564Z,14.44
2023-06-15T06:51:01.036Z,14.40
2023-06-15T06:53:31.797Z,14.40
2023-06-15T06:56:03.288Z,14.40
2023-06-15T06:58:34.024Z,14.45
2023-06-15T07:01:05.135Z,14.47
2023-06-15T07:03:35.239Z,14.47
2023-06-15T07:06:05.333Z,14.50
2023-06-15T07:08:36.007Z,14.45
2023-06-15T07:11:07.355Z,14.40
2023-06-15T07:13:37.640Z,14.42
2023-06-15T07:16:08.571Z,14.40
2023-06-15T07:18:38.727Z,14.41
2023-06-15T07:21:08.529Z,14.41
2023-06-15T07:23:52.985Z,14.40
2023-06-15T07:26:25.899Z,14.40
2023-06-15T07:28:56.773Z,14.33
2023-06-15T07:31:27.123Z,14.30
2023-06-15T07:33:59.986Z,14.27
2023-06-15T07:36:30.083Z,14.26
2023-06-15T07:38:59.395Z,14.24
2023-06-15T07:41:29.743Z,14.30
2023-06-15T07:44:01.621Z,14.26
2023-06-15T07:46:32.454Z,14.29
2023-06-15T07:49:03.397Z,14.30
2023-06-15T07:51:48.168Z,14.30
2023-06-15T07:54:24.533Z,14.30
2023-06-15T07:56:55.000Z,14.30
2023-06-15T07:59:25.737Z,14.26
2023-06-15T08:01:55.601Z,14.24
2023-06-15T08:04:26.355Z,14.21
2023-06-15T08:06:57.101Z,14.20
2023-06-15T08:09:27.217Z,14.24
2023-06-15T08:11:57.564Z,14.26
2023-06-15T08:14:29.163Z,14.29
2023-06-15T08:16:59.967Z,14.33
2023-06-15T08:19:31.253Z,14.33
2023-06-15T08:22:01.319Z,14.34
2023-06-15T08:24:31.866Z,14.33
2023-06-15T08:27:03.075Z,14.34
2023-06-15T08:29:33.882Z,14.31
2023-06-15T08:32:03.693Z,14.33
2023-06-15T08:34:35.368Z,14.36
2023-06-15T08:37:06.718Z,14.36
2023-06-15T08:39:37.116Z,14.37
2023-06-15T08:42:07.650Z,14.42
2023-06-15T08:44:39.317Z,14.40
2023-06-15T08:47:11.069Z,14.41
2023-06-15T08:49:42.458Z,14.45
2023-06-15T08:52:15.332Z,14.50
2023-06-15T08:54:46.905Z,14.50
2023-06-15T08:57:18.151Z,14.52
2023-06-15T08:59:48.896Z,14.58
2023-06-15T09:02:23.757Z,14.56
2023-06-15T09:04:54.952Z,14.63
2023-06-15T09:07:26.969Z,14.63
2023-06-15T09:10:19.912Z,14.64
2023-06-15T09:12:54.264Z,14.65
2023-06-15T09:15:27.962Z,14.67
2023-06-15T09:18:01.129Z,14.68
2023-06-15T09:20:40.717Z,14.71
2023-06-15T09:23:16.453Z,14.61
2023-06-15T09:25:58.804Z,14.63
2023-06-15T09:28:32.235Z,14.61
2023-06-15T09:31:03.685Z,14.64
2023-06-15T09:33:33.853Z,14.65
2023-06-15T09:36:10.515Z,14.64
2023-06-15T09:38:48.256Z,14.64
2023-06-15T09:41:18.421Z,14.69
2023-06-15T09:43:48.844Z,14.65
2023-06-15T09:46:21.337Z,14.71
2023-06-15T09:48:52.575Z,14.72
2023-06-15T09:51:23.885Z,14.74
2023-06-15T09:53:54.682Z,14.72
2023-06-15T09:56:30.479Z,14.69
2023-06-15T09:59:05.022Z,14.69
2023-06-15T10:01:38.947Z,14.69
2023-06-15T10:04:12.189Z,14.68
2023-06-15T10:06:47.205Z,14.67
2023-06-15T10:09:24.653Z,14.71
2023-06-15T10:12:01.771Z,14.65
2023-06-15T10:14:59.927Z,14.64
2023-06-15T10:17:35.806Z,14.69
2023-06-15T10:20:11.932Z,14.68
2023-06-15T10:22:48.867Z,14.64
2023-06-15T10:25:21.290Z,14.63
2023-06-15T10:27:52.140Z,14.60
2023-06-15T10:31:07.501Z,14.58
2023-06-15T10:33:49.257Z,14.57
2023-06-15T10:36:48.289Z,14.61
2023-06-15T10:39:28.414Z,14.60
2023-06-15T10:41:59.966Z,14.56
2023-06-15T10:44:37.233Z,14.57
2023-06-15T10:47:11.841Z,14.56
2023-06-15T10:49:56.489Z,14.54
2023-06-15T10:52:37.733Z,14.56
2023-06-15T10:55:12.402Z,14.56
2023-06-15T10:57:44.899Z,14.56
2023-06-15T11:00:25.716Z,14.57
2023-06-15T11:03:02.000Z,14.58
2023-06-15T11:05:46.882Z,14.58
2023-06-15T11:08:20.123Z,14.58
2023-06-15T11:10:50.212Z,14.60
2023-06-15T11:13:29.690Z,14.60
2023-06-15T11:16:13.062Z,14.61
2023-06-15T11:18:58.465Z,14.63
2023-06-15T11:21:33.083Z,14.60
2023-06-15T11:24:05.212Z,14.61
2023-06-15T11:26:36.858Z,14.57
2023-06-15T11:29:10.260Z,14.56
2023-06-15T11:31:44.363Z,14.58
2023-06-15T11:34:15.070Z,14.64
2023-06-15T11:36:49.079Z,14.63
2023-06-15T11:39:26.083Z,14.67
2023-06-15T11:41:57.749Z,14.60
2023-06-15T11:44:33.142Z,14.64
2023-06-15T11:47:04.364Z,14.60
2023-06-15T11:49:36.853Z,14.54
2023-06-15T11:52:08.257Z,14.61
2023-06-15T11:54:50.133Z,14.60
2023-06-15T11:57:23.413Z,14.60
2023-06-15T11:59:55.880Z,14.61
2023-06-15T12:02:26.360Z,14.61
2023-06-15T12:05:01.585Z,14.64
2023-06-15T12:07:39.411Z,14.64
2023-06-15T12:10:12.210Z,14.69
2023-06-15T12:12:43.432Z,14.72
2023-06-15T12:15:14.692Z,14.74
2023-06-15T12:17:47.991Z,14.75
2023-06-15T12:20:19.473Z,14.75
2023-06-15T12:22:51.923Z,14.75
2023-06-15T12:25:41.265Z,14.77
2023-06-15T12:28:17.566Z,14.79
2023-06-15T12:30:52.304Z,14.87
2023-06-15T12:33:44.973Z,14.89
2023-06-15T12:36:17.196Z,14.89
2023-06-15T12:38:52.109Z,14.88
2023-06-15T12:41:22.167Z,14.95
2023-06-15T12:43:52.019Z,15.00
2023-06-15T12:46:22.483Z,14.99
2023-06-15T12:48:52.717Z,15.05
2023-06-15T12:51:22.984Z,15.03
2023-06-15T12:53:52.869Z,15.02
2023-06-15T12:56:23.332Z,15.09
2023-06-15T12:58:53.144Z,15.09
2023-06-15T13:01:25.651Z,15.09
2023-06-15T13:03:56.608Z,15.09
2023-06-15T13:06:29.113Z,15.13
2023-06-15T13:08:59.911Z,15.12
2023-06-15T13:11:31.181Z,15.19
2023-06-15T13:14:02.027Z,15.16
2023-06-15T13:16:33.380Z,15.18
2023-06-15T13:19:04.233Z,15.19
2023-06-15T13:21:34.095Z,15.15
2023-06-15T13:24:04.622Z,15.12
2023-06-15T13:26:35.088Z,15.10
2023-06-15T13:29:05.929Z,15.13
2023-06-15T13:31:35.867Z,15.06
2023-06-15T13:34:06.088Z,15.08
2023-06-15T13:36:37.597Z,15.06
2023-06-15T13:39:08.595Z,15.03
2023-06-15T13:41:40.532Z,15.03
2023-06-15T13:44:11.059Z,15.02
2023-06-15T13:46:42.300Z,15.00
2023-06-15T13:49:13.690Z,14.99
2023-06-15T13:51:45.215Z,14.96
2023-06-15T13:54:15.495Z,14.96
2023-06-15T13:56:45.888Z,14.98
2023-06-15T13:59:16.637Z,14.96
2023-06-15T14:01:46.831Z,15.00
2023-06-15T14:04:17.140Z,15.06
2023-06-15T14:06:46.969Z,15.06
2023-06-15T14:09:17.175Z,15.06
2023-06-15T14:11:47.476Z,15.10
2023-06-15T14:14:19.590Z,15.10
2023-06-15T14:16:49.857Z,15.16
2023-06-15T14:19:20.831Z,15.15
2023-06-15T14:21:51.350Z,15.15
2023-06-15T14:24:23.369Z,15.19
2023-06-15T14:26:53.551Z,15.19
2023-06-15T14:29:23.475Z,15.19
2023-06-15T14:31:54.868Z,15.20
2023-06-15T14:34:26.013Z,15.22
2023-06-15T14:36:57.047Z,15.26
2023-06-15T14:39:27.503Z,15.29
2023-06-15T14:41:57.297Z,15.30
2023-06-15T14:44:27.910Z,15.32
2023-06-15T14:47:00.231Z,15.33
2023-06-15T14:49:30.699Z,15.40
2023-06-15T14:52:01.430Z,15.36
2023-06-15T14:54:32.913Z,15.39
2023-06-15T14:57:04.502Z,15.47
2023-06-15T14:59:34.830Z,15.54
2023-06-15T15:02:04.758Z,15.58
2023-06-15T15:04:35.622Z,15.63
2023-06-15T15:07:06.184Z,15.73
2023-06-15T15:09:37.613Z,15.80
2023-06-15T15:12:08.531Z,15.78
2023-06-15T15:14:39.750Z,15.84
2023-06-15T15:17:10.751Z,15.81
2023-06-15T15:19:42.734Z,15.81
2023-06-15T15:22:12.668Z,15.85
2023-06-15T15:24:43.234Z,15.88
2023-06-15T15:27:14.521Z,15.91
2023-06-15T15:29:45.545Z,15.94
2023-06-15T15:32:15.744Z,15.94
2023-06-15T15:34:46.323Z,15.94
2023-06-15T15:37:16.749Z,15.88
2023-06-15T15:39:47.730Z,15.84
2023-06-15T15:42:18.664Z,15.80
2023-06-15T15:44:49.995Z,15.76
2023-06-15T15:47:21.418Z,15.70
2023-06-15T15:49:52.412Z,15.74
2023-06-15T15:52:22.677Z,15.73
2023-06-15T15:54:53.691Z,15.68
2023-06-15T15:57:23.898Z,15.66
2023-06-15T15:59:53.731Z,15.64
2023-06-15T16:02:28.825Z,15.60
2023-06-15T16:05:02.326Z,15.66
2023-06-15T16:07:33.287Z,15.66
2023-06-15T16:10:03.730Z,15.66
2023-06-15T16:12:33.571Z,15.71
2023-06-15T16:15:05.322Z,15.74
2023-06-15T16:17:37.516Z,15.77
2023-06-15T16:20:10.060Z,15.80
2023-06-15T16:22:41.064Z,15.88
2023-06-15T16:25:11.976Z,15.94
2023-06-15T16:27:42.864Z,16.02
2023-06-15T16:30:14.983Z,16.08
2023-06-15T16:32:46.083Z,16.14
2023-06-15T16:35:17.379Z,16.09
2023-06-15T16:37:47.996Z,16.14
2023-06-15T16:40:19.773Z,16.08
2023-06-15T16:42:50.480Z,16.02
2023-06-15T16:45:20.604Z,15.94
2023-06-15T16:47:52.000Z,15.87
2023-06-15T16:50:26.750Z,15.88
2023-06-15T16:52:57.178Z,15.90
2023-06-15T16:55:27.137Z,15.88
2023-06-15T16:57:58.498Z,15.87
2023-06-15T17:00:29.168Z,15.91
2023-06-15T17:03:00.583Z,15.88
2023-06-15T17:05:34.079Z,15.87
2023-06-15T17:08:05.112Z,15.85
2023-06-15T17:10:37.313Z,15.87
2023-06-15T17:13:09.064Z,15.90
2023-06-15T17:15:40.696Z,15.87
2023-06-15T17:18:15.754Z,15.81
2023-06-15T17:20:46.216Z,15.76
2023-06-15T17:23:17.091Z,15.76
2023-06-15T17:25:47.350Z,15.74
2023-06-15T17:28:17.254Z,15.68
2023-06-15T17:30:47.675Z,15.76
2023-06-15T17:33:18.726Z,15.74
2023-06-15T17:35:51.020Z,15.76
2023-06-15T17:38:21.116Z,15.76
2023-06-15T17:40:51.934Z,15.76
2023-06-15T17:43:22.496Z,15.73
2023-06-15T17:45:53.957Z,15.73
2023-06-15T17:48:25.615Z,15.71
2023-06-15T17:50:55.667Z,15.76
2023-06-15T17:53:27.464Z,15.78
2023-06-15T17:56:05.174Z,15.73
2023-06-15T17:58:35.852Z,15.74
2023-06-15T18:01:06.532Z,15.74
2023-06-15T18:03:37.542Z,15.76
2023-06-15T18:06:08.704Z,15.76
2023-06-15T18:08:42.908Z,15.76
2023-06-15T18:11:13.148Z,15.77
2023-06-15T18:13:43.049Z,15.74
2023-06-15T18:16:13.420Z,15.74
2023-06-15T18:18:43.644Z,15.74
2023-06-15T18:21:15.110Z,15.74
2023-06-15T18:23:45.831Z,15.71
2023-06-15T18:26:16.025Z,15.68
2023-06-15T18:28:46.703Z,15.67
2023-06-15T18:31:17.324Z,15.67
2023-06-15T18:33:47.540Z,15.67
2023-06-15T18:36:17.391Z,15.68
2023-06-15T18:38:48.367Z,15.68
2023-06-15T18:41:20.047Z,15.70
2023-06-15T18:43:52.721Z,15.73
2023-06-15T18:46:24.921Z,15.71
2023-06-15T18:48:55.489Z,15.70
2023-06-15T18:51:26.038Z,15.70
2023-06-15T18:53:57.499Z,15.74
2023-06-15T18:56:28.546Z,15.76
2023-06-15T18:58:58.958Z,15.78
2023-06-15T19:01:30.615Z,15.76
2023-06-15T19:04:01.135Z,15.78
2023-06-15T19:06:31.063Z,15.80
2023-06-15T19:09:01.701Z,15.80
2023-06-15T19:11:32.308Z,15.80
2023-06-15T19:14:04.875Z,15.80
2023-06-15T19:16:35.368Z,15.78
2023-06-15T19:19:05.193Z,15.76
2023-06-15T19:21:39.279Z,15.78
2023-06-15T19:24:11.718Z,15.80
2023-06-15T19:26:43.661Z,15.78
2023-06-15T19:29:13.754Z,15.76
2023-06-15T19:31:44.529Z,15.77
2023-06-15T19:34:19.354Z,15.74
2023-06-15T19:36:54.849Z,15.76
2023-06-15T19:39:27.843Z,15.73
2023-06-15T19:41:57.945Z,15.68
2023-06-15T19:44:27.729Z,15.66
2023-06-15T19:46:59.945Z,15.63
2023-06-15T19:49:33.351Z,15.64
2023-06-15T19:52:06.209Z,15.61
2023-06-15T19:54:36.833Z,15.60
2023-06-15T19:57:07.540Z,15.58
2023-06-15T19:59:39.476Z,15.60
2023-06-15T20:02:10.942Z,15.63
2023-06-15T20:04:41.184Z,15.60
2023-06-15T20:07:13.162Z,15.58
2023-06-15T20:09:45.648Z,15.60
2023-06-15T20:12:16.464Z,15.61
2023-06-15T20:14:47.227Z,15.66
2023-06-15T20:17:17.045Z,15.63
2023-06-15T20:19:47.183Z,15.63
2023-06-15T20:22:18.532Z,15.63
2023-06-15T20:24:49.954Z,15.70
2023-06-15T20:27:20.094Z,15.74
2023-06-15T20:29:50.032Z,15.73
2023-06-15T20:32:23.068Z,15.74
2023-06-15T20:34:57.054Z,15.73
2023-06-15T20:37:29.082Z,15.70
2023-06-15T20:40:00.391Z,15.67
2023-06-15T20:42:33.803Z,15.68
2023-06-15T20:45:05.977Z,15.67
2023-06-15T20:47:37.519Z,15.67
2023-06-15T20:50:12.237Z,15.67
2023-06-15T20:52:44.605Z,15.67
2023-06-15T20:55:15.955Z,15.70
2023-06-15T20:57:46.744Z,15.68
2023-06-15T21:00:17.428Z,15.68
2023-06-15T21:02:48.305Z,15.68
2023-06-15T21:05:18.142Z,15.67
2023-06-15T21:07:49.495Z,15.64
2023-06-15T21:10:22.408Z,15.61
2023-06-15T21:12:52.707Z,15.60
2023-06-15T21:15:23.245Z,15.63
2023-06-15T21:17:53.510Z,15.60
2023-06-15T21:20:23.914Z,15.63
2023-06-15T21:22:54.460Z,15.67
2023-06-15T21:25:25.265Z,15.66
2023-06-15T21:27:55.845Z,15.66
2023-06-15T21:30:27.759Z,15.64
2023-06-15T21:32:58.585Z,15.64
2023-06-15T21:35:28.397Z,15.70
2023-06-15T21:37:58.525Z,15.68
2023-06-15T21:40:29.596Z,15.68
2023-06-15T21:43:01.248Z,15.71
2023-06-15T21:45:32.264Z,15.74
2023-06-15T21:48:02.392Z,15.74
2023-06-15T21:50:34.478Z,15.76
2023-06-15T21:53:05.962Z,15.73
2023-06-15T21:55:36.562Z,15.76
2023-06-15T21:58:06.451Z,15.73
2023-06-15T22:00:37.609Z,15.74
2023-06-15T22:03:08.346Z,15.76
2023-06-15T22:05:39.544Z,15.73
2023-06-15T22:08:10.570Z,15.73
2023-06-15T22:10:40.796Z,15.74
2023-06-15T22:13:11.116Z,15.71
2023-06-15T22:15:41.890Z,15.70
2023-06-15T22:18:11.935Z,15.68
2023-06-15T22:20:44.233Z,15.67
2023-06-15T22:23:17.144Z,15.70
2023-06-15T22:25:55.880Z,15.68
2023-06-15T22:28:27.076Z,15.68
2023-06-15T22:30:57.551Z,15.68
2023-06-15T22:33:28.931Z,15.70
2023-06-15T22:35:59.779Z,15.70
2023-06-15T22:38:29.584Z,15.68
2023-06-15T22:40:59.932Z,15.73
2023-06-15T22:43:33.394Z,15.74
2023-06-15T22:46:05.246Z,15.74
2023-06-15T22:48:39.365Z,15.74
2023-06-15T22:51:09.589Z,15.71
2023-06-15T22:53:41.032Z,15.74
2023-06-15T22:56:13.695Z,15.74
2023-06-15T22:58:44.056Z,15.74
2023-06-15T23:01:14.280Z,15.74
2023-06-15T23:03:44.780Z,15.76
2023-06-15T23:06:15.445Z,15.77
2023-06-15T23:08:50.053Z,15.77
2023-06-15T23:11:20.394Z,15.80
2023-06-15T23:13:56.029Z,15.76
2023-06-15T23:16:28.463Z,15.77
2023-06-15T23:18:59.660Z,15.76
2023-06-15T23:21:31.677Z,15.74
2023-06-15T23:24:02.588Z,15.74
2023-06-15T23:26:37.396Z,15.74
2023-06-15T23:29:09.077Z,15.77
2023-06-15T23:31:39.247Z,15.77
2023-06-15T23:34:09.062Z,15.78
2023-06-15T23:36:41.099Z,15.73
2023-06-15T23:39:12.079Z,15.76
2023-06-15T23:41:43.591Z,15.76
2023-06-15T23:44:15.214Z,15.70
2023-06-15T23:46:47.456Z,15.68
2023-06-15T23:49:19.532Z,15.66
2023-06-15T23:51:50.856Z,15.68
2023-06-15T23:54:21.060Z,15.70
2023-06-15T23:56:52.227Z,15.70
2023-06-15T23:59:23.230Z,15.71
